Elmore, MN

4:36 PM CDT on March 29, 2015 (GMT -0500)
Faribault County Law Enforcement Center | | Change Station
CLOSE
Current Station
Personal Weather Station
Location: Blue Earth, MN
Elevation: 1079 ft
Nearby Weather Stations
Active Advisory: Wind Advisory Active Notice: Public Information Statement

Elev 1079 ft 43.65 °N, 94.10 °W | Updated 14 minutes ago

Clear
Clear
55.8 °F
Feels Like 55.8 °F
N
22.0
Wind Variable Wind from NNW
Gusts 40.0 mph

Today
High -- | Low -- °F
--% Chance of Precip.
Yesterday
High -- | Low -- °F
Precip. -- in
7:03 AM 7:39 PM
Waxing Gibbous, 74% visible
Pressure 29.88 in
Visibility 10.0 miles
Clouds Clear
Dew Point 29 °F
Humidity 36%
Rainfall 0.02 in
Snow Depth Not available.
UV 4 out of 12
Pollen 4.80 out of 12
Air Quality Not available.
Flu Activity Not available.
METAR KFRM 292115Z AUTO 31026G33KT 10SM CLR 14/M03 A2988 RMK AO1

More Conditions Fewer Conditions

Pressure 29.88 in
Visibility 10.0 miles
Clouds Clear
Dew Point 29 °F
Humidity 36%
Rainfall 0.02 in
Snow Depth Not available.
UV 4 out of 12
Pollen 4.80 out of 12
Air Quality Not available.
Flu Activity Not available.
METAR KFRM 292115Z AUTO 31026G33KT 10SM CLR 14/M03 A2988 RMK AO1

More Conditions Fewer Conditions

10-Day Weather Forecast

Almanac

Astronomy

Mar. 29, 2015 Rise Set
Actual Time
Civil Twilight
Nautical Twilight
Astronomical Twilight
Moon
Length of Visible Light
Length of Day
Tomorrow will be .
, % of the Moon is Illuminated

Today's Extremes

State Highs State Lows

Community

WunderPhotos

Upload Photos

1,809,355 photos uploaded!

WunderBlogs® & News

Nearby

Air Quality

  Air Quality AQ Index Pollutant
Not available.

Snow Depth

Station Depth Elevation

Earthquake Activity

City Distance Mag. Time & Date
Minimum magnitude displayed is 2.5.

Coastal Water Temperatures

Place Temperature

Stations

Nearby Weather Stations

Station Location Temp. Windchill Dew Point Humidity Wind Precip. Elev Updated Type
                   
Wind Advisory
Statement as of 11:16 AM CDT on March 29, 2015

... Wind Advisory remains in effect until 6 PM CDT this evening...

* timing... through the afternoon hours.

* Winds... northwest 30 to 35 mph with gusts 45 to 50 mph.

* Impacts... driving may be difficult at times... especially for
high profile and light weight vehicles. Unsecured outdoor
items will be blown around.

Precautionary/preparedness actions...

A Wind Advisory means that sustained winds of 30 to 39 mph or
gusts between 45 and 57 mph are expected. Winds this strong can
make driving difficult... especially for high profile vehicles.
Use extra caution.